sensor_id;sensor_type;location;lat;lon;timestamp;P1;durP1;ratioP1;P2;durP2;ratioP2
41546;SDS011;27271;45.412;10.852;2023-02-15T00:00:38;77.47;;;33.40;;
41546;SDS011;27271;45.412;10.852;2023-02-15T00:04:00;73.90;;;30.40;;
41546;SDS011;27271;45.412;10.852;2023-02-15T00:07:23;76.70;;;31.80;;
41546;SDS011;27271;45.412;10.852;2023-02-15T00:10:45;82.95;;;31.73;;
41546;SDS011;27271;45.412;10.852;2023-02-15T00:14:08;84.68;;;31.95;;
41546;SDS011;27271;45.412;10.852;2023-02-15T00:17:31;81.63;;;30.15;;
41546;SDS011;27271;45.412;10.852;2023-02-15T00:20:53;80.90;;;31.30;;
41546;SDS011;27271;45.412;10.852;2023-02-15T00:24:15;80.82;;;30.25;;
41546;SDS011;27271;45.412;10.852;2023-02-15T00:27:39;70.60;;;29.73;;
41546;SDS011;27271;45.412;10.852;2023-02-15T00:31:10;78.35;;;31.40;;
41546;SDS011;27271;45.412;10.852;2023-02-15T00:34:33;82.82;;;32.72;;
41546;SDS011;27271;45.412;10.852;2023-02-15T00:37:56;85.93;;;33.97;;
41546;SDS011;27271;45.412;10.852;2023-02-15T00:41:18;87.00;;;30.77;;
41546;SDS011;27271;45.412;10.852;2023-02-15T00:44:40;84.47;;;32.38;;
41546;SDS011;27271;45.412;10.852;2023-02-15T00:48:02;82.43;;;32.55;;
41546;SDS011;27271;45.412;10.852;2023-02-15T00:51:24;80.90;;;31.80;;
41546;SDS011;27271;45.412;10.852;2023-02-15T00:54:46;98.05;;;33.90;;
41546;SDS011;27271;45.412;10.852;2023-02-15T00:58:09;81.97;;;31.73;;
41546;SDS011;27271;45.412;10.852;2023-02-15T01:01:31;83.45;;;31.90;;
41546;SDS011;27271;45.412;10.852;2023-02-15T01:04:53;87.82;;;30.95;;
41546;SDS011;27271;45.412;10.852;2023-02-15T01:08:16;97.13;;;35.40;;
41546;SDS011;27271;45.412;10.852;2023-02-15T01:11:38;83.50;;;32.92;;
41546;SDS011;27271;45.412;10.852;2023-02-15T01:15:00;98.15;;;33.17;;
41546;SDS011;27271;45.412;10.852;2023-02-15T01:18:22;90.38;;;33.70;;
41546;SDS011;27271;45.412;10.852;2023-02-15T01:21:44;85.05;;;34.28;;
41546;SDS011;27271;45.412;10.852;2023-02-15T01:25:09;91.90;;;33.17;;
41546;SDS011;27271;45.412;10.852;2023-02-15T01:28:31;101.55;;;36.85;;
41546;SDS011;27271;45.412;10.852;2023-02-15T01:31:54;89.57;;;33.30;;
41546;SDS011;27271;45.412;10.852;2023-02-15T01:35:17;99.30;;;35.47;;
41546;SDS011;27271;45.412;10.852;2023-02-15T01:38:40;89.55;;;34.33;;
41546;SDS011;27271;45.412;10.852;2023-02-15T01:42:03;102.18;;;36.13;;
41546;SDS011;27271;45.412;10.852;2023-02-15T01:45:29;98.20;;;36.47;;
41546;SDS011;27271;45.412;10.852;2023-02-15T01:48:54;101.75;;;37.20;;
41546;SDS011;27271;45.412;10.852;2023-02-15T01:52:21;95.67;;;37.40;;
41546;SDS011;27271;45.412;10.852;2023-02-15T01:55:45;93.65;;;37.15;;
41546;SDS011;27271;45.412;10.852;2023-02-15T01:59:12;95.95;;;37.05;;
41546;SDS011;27271;45.412;10.852;2023-02-15T02:02:39;85.43;;;36.13;;
41546;SDS011;27271;45.412;10.852;2023-02-15T02:06:03;87.28;;;35.72;;
41546;SDS011;27271;45.412;10.852;2023-02-15T02:09:26;86.40;;;34.95;;
41546;SDS011;27271;45.412;10.852;2023-02-15T02:12:49;102.28;;;36.20;;
41546;SDS011;27271;45.412;10.852;2023-02-15T02:16:16;111.15;;;39.70;;
41546;SDS011;27271;45.412;10.852;2023-02-15T02:30:56;101.93;;;40.28;;
41546;SDS011;27271;45.412;10.852;2023-02-15T02:45:14;96.88;;;37.67;;
41546;SDS011;27271;45.412;10.852;2023-02-15T02:48:43;98.45;;;36.45;;
41546;SDS011;27271;45.412;10.852;2023-02-15T02:56:55;89.30;;;32.67;;
41546;SDS011;27271;45.412;10.852;2023-02-15T03:00:02;88.18;;;32.70;;
41546;SDS011;27271;45.412;10.852;2023-02-15T03:07:20;85.30;;;32.70;;
41546;SDS011;27271;45.412;10.852;2023-02-15T03:10:49;89.47;;;33.63;;
41546;SDS011;27271;45.412;10.852;2023-02-15T03:14:15;78.90;;;30.70;;
41546;SDS011;27271;45.412;10.852;2023-02-15T03:17:41;77.35;;;28.75;;
41546;SDS011;27271;45.412;10.852;2023-02-15T03:21:06;59.03;;;24.52;;
41546;SDS011;27271;45.412;10.852;2023-02-15T03:24:37;72.32;;;25.38;;
41546;SDS011;27271;45.412;10.852;2023-02-15T03:28:03;56.50;;;22.02;;
41546;SDS011;27271;45.412;10.852;2023-02-15T03:31:30;51.97;;;20.52;;
41546;SDS011;27271;45.412;10.852;2023-02-15T03:34:54;50.15;;;19.65;;
41546;SDS011;27271;45.412;10.852;2023-02-15T03:38:20;53.15;;;20.88;;
41546;SDS011;27271;45.412;10.852;2023-02-15T03:41:58;52.97;;;19.17;;
41546;SDS011;27271;45.412;10.852;2023-02-15T03:45:33;43.97;;;16.52;;
41546;SDS011;27271;45.412;10.852;2023-02-15T03:49:00;36.42;;;14.65;;
41546;SDS011;27271;45.412;10.852;2023-02-15T03:52:43;39.53;;;14.77;;
41546;SDS011;27271;45.412;10.852;2023-02-15T03:56:05;41.63;;;17.40;;
41546;SDS011;27271;45.412;10.852;2023-02-15T03:59:27;43.92;;;16.20;;
41546;SDS011;27271;45.412;10.852;2023-02-15T04:06:33;37.13;;;13.93;;
41546;SDS011;27271;45.412;10.852;2023-02-15T04:09:55;45.55;;;15.48;;
41546;SDS011;27271;45.412;10.852;2023-02-15T04:13:35;35.50;;;12.38;;
41546;SDS011;27271;45.412;10.852;2023-02-15T04:16:57;35.22;;;12.50;;
41546;SDS011;27271;45.412;10.852;2023-02-15T04:20:19;28.40;;;12.73;;
41546;SDS011;27271;45.412;10.852;2023-02-15T04:24:00;30.27;;;12.85;;
41546;SDS011;27271;45.412;10.852;2023-02-15T04:27:45;37.85;;;14.15;;
41546;SDS011;27271;45.412;10.852;2023-02-15T04:31:14;26.85;;;10.05;;
41546;SDS011;27271;45.412;10.852;2023-02-15T04:34:36;27.25;;;11.32;;
41546;SDS011;27271;45.412;10.852;2023-02-15T04:37:58;22.30;;;9.48;;
41546;SDS011;27271;45.412;10.852;2023-02-15T04:41:21;18.20;;;7.68;;
41546;SDS011;27271;45.412;10.852;2023-02-15T04:44:44;28.38;;;11.35;;
41546;SDS011;27271;45.412;10.852;2023-02-15T04:48:06;34.45;;;12.18;;
41546;SDS011;27271;45.412;10.852;2023-02-15T04:51:28;27.30;;;11.20;;
41546;SDS011;27271;45.412;10.852;2023-02-15T04:54:50;25.85;;;10.95;;
41546;SDS011;27271;45.412;10.852;2023-02-15T04:58:12;28.88;;;12.50;;
41546;SDS011;27271;45.412;10.852;2023-02-15T05:01:34;25.42;;;11.45;;
41546;SDS011;27271;45.412;10.852;2023-02-15T05:04:56;28.33;;;12.75;;
41546;SDS011;27271;45.412;10.852;2023-02-15T05:08:19;41.55;;;15.00;;
41546;SDS011;27271;45.412;10.852;2023-02-15T05:11:41;36.33;;;15.25;;
41546;SDS011;27271;45.412;10.852;2023-02-15T05:15:03;39.28;;;17.25;;
41546;SDS011;27271;45.412;10.852;2023-02-15T05:18:26;48.45;;;16.88;;
41546;SDS011;27271;45.412;10.852;2023-02-15T05:21:48;57.13;;;20.30;;
41546;SDS011;27271;45.412;10.852;2023-02-15T05:25:11;50.78;;;18.92;;
41546;SDS011;27271;45.412;10.852;2023-02-15T05:28:52;47.80;;;19.95;;
41546;SDS011;27271;45.412;10.852;2023-02-15T05:32:17;48.33;;;18.08;;
41546;SDS011;27271;45.412;10.852;2023-02-15T05:35:40;55.30;;;20.05;;
41546;SDS011;27271;45.412;10.852;2023-02-15T05:39:02;55.50;;;19.52;;
41546;SDS011;27271;45.412;10.852;2023-02-15T05:42:27;50.22;;;19.23;;
41546;SDS011;27271;45.412;10.852;2023-02-15T05:45:50;46.67;;;19.60;;
41546;SDS011;27271;45.412;10.852;2023-02-15T05:49:15;58.28;;;20.02;;
41546;SDS011;27271;45.412;10.852;2023-02-15T05:52:37;49.13;;;19.98;;
41546;SDS011;27271;45.412;10.852;2023-02-15T05:56:01;53.58;;;20.27;;
41546;SDS011;27271;45.412;10.852;2023-02-15T05:59:24;60.28;;;21.70;;
41546;SDS011;27271;45.412;10.852;2023-02-15T06:02:46;56.45;;;19.05;;
41546;SDS011;27271;45.412;10.852;2023-02-15T06:06:09;52.55;;;19.33;;
41546;SDS011;27271;45.412;10.852;2023-02-15T06:09:32;51.58;;;21.13;;
41546;SDS011;27271;45.412;10.852;2023-02-15T06:12:54;49.33;;;19.40;;
41546;SDS011;27271;45.412;10.852;2023-02-15T06:16:15;44.90;;;18.45;;
41546;SDS011;27271;45.412;10.852;2023-02-15T06:19:38;55.90;;;19.05;;
41546;SDS011;27271;45.412;10.852;2023-02-15T06:23:00;50.92;;;17.77;;
41546;SDS011;27271;45.412;10.852;2023-02-15T06:26:23;51.50;;;18.90;;
41546;SDS011;27271;45.412;10.852;2023-02-15T06:29:46;48.53;;;17.70;;
41546;SDS011;27271;45.412;10.852;2023-02-15T06:33:08;48.95;;;20.27;;
41546;SDS011;27271;45.412;10.852;2023-02-15T06:36:31;44.28;;;16.83;;
41546;SDS011;27271;45.412;10.852;2023-02-15T06:40:03;43.13;;;16.13;;
41546;SDS011;27271;45.412;10.852;2023-02-15T06:43:25;34.22;;;15.45;;
41546;SDS011;27271;45.412;10.852;2023-02-15T06:46:47;35.67;;;13.90;;
41546;SDS011;27271;45.412;10.852;2023-02-15T06:50:11;41.65;;;14.55;;
41546;SDS011;27271;45.412;10.852;2023-02-15T06:53:34;37.67;;;16.60;;
41546;SDS011;27271;45.412;10.852;2023-02-15T06:56:56;40.67;;;15.82;;
41546;SDS011;27271;45.412;10.852;2023-02-15T07:00:19;49.47;;;17.50;;
41546;SDS011;27271;45.412;10.852;2023-02-15T07:03:43;44.65;;;18.02;;
41546;SDS011;27271;45.412;10.852;2023-02-15T07:07:09;47.40;;;17.42;;
41546;SDS011;27271;45.412;10.852;2023-02-15T07:10:54;58.50;;;19.98;;
41546;SDS011;27271;45.412;10.852;2023-02-15T07:14:43;52.13;;;18.50;;
41546;SDS011;27271;45.412;10.852;2023-02-15T07:18:05;68.30;;;21.92;;
41546;SDS011;27271;45.412;10.852;2023-02-15T07:21:27;46.90;;;20.38;;
41546;SDS011;27271;45.412;10.852;2023-02-15T07:24:49;65.63;;;25.05;;
41546;SDS011;27271;45.412;10.852;2023-02-15T07:28:15;84.45;;;29.63;;
41546;SDS011;27271;45.412;10.852;2023-02-15T07:31:37;92.30;;;33.45;;
41546;SDS011;27271;45.412;10.852;2023-02-15T07:35:00;78.80;;;30.15;;
41546;SDS011;27271;45.412;10.852;2023-02-15T07:38:22;66.65;;;28.15;;
41546;SDS011;27271;45.412;10.852;2023-02-15T07:41:44;66.18;;;26.55;;
41546;SDS011;27271;45.412;10.852;2023-02-15T07:45:07;54.65;;;23.65;;
41546;SDS011;27271;45.412;10.852;2023-02-15T07:48:34;50.90;;;22.48;;
41546;SDS011;27271;45.412;10.852;2023-02-15T07:51:57;63.30;;;25.42;;
41546;SDS011;27271;45.412;10.852;2023-02-15T07:55:22;62.78;;;27.73;;
41546;SDS011;27271;45.412;10.852;2023-02-15T07:58:45;42.60;;;21.60;;
41546;SDS011;27271;45.412;10.852;2023-02-15T08:02:14;48.17;;;20.90;;
41546;SDS011;27271;45.412;10.852;2023-02-15T08:05:39;35.95;;;17.70;;
41546;SDS011;27271;45.412;10.852;2023-02-15T08:09:03;37.50;;;18.83;;
41546;SDS011;27271;45.412;10.852;2023-02-15T08:12:27;40.13;;;19.05;;
41546;SDS011;27271;45.412;10.852;2023-02-15T08:15:51;42.58;;;18.75;;
41546;SDS011;27271;45.412;10.852;2023-02-15T08:22:42;53.37;;;18.90;;
41546;SDS011;27271;45.412;10.852;2023-02-15T08:26:07;44.35;;;19.38;;
41546;SDS011;27271;45.412;10.852;2023-02-15T08:29:30;46.90;;;20.10;;
41546;SDS011;27271;45.412;10.852;2023-02-15T08:32:52;53.85;;;23.45;;
41546;SDS011;27271;45.412;10.852;2023-02-15T08:36:19;56.95;;;24.40;;
41546;SDS011;27271;45.412;10.852;2023-02-15T08:39:42;52.25;;;24.33;;
41546;SDS011;27271;45.412;10.852;2023-02-15T08:43:04;64.05;;;25.67;;
41546;SDS011;27271;45.412;10.852;2023-02-15T08:46:29;64.78;;;29.48;;
41546;SDS011;27271;45.412;10.852;2023-02-15T08:49:53;52.75;;;25.15;;
41546;SDS011;27271;45.412;10.852;2023-02-15T08:53:17;55.60;;;26.63;;
41546;SDS011;27271;45.412;10.852;2023-02-15T08:56:43;51.72;;;25.80;;
41546;SDS011;27271;45.412;10.852;2023-02-15T09:00:06;55.03;;;25.42;;
41546;SDS011;27271;45.412;10.852;2023-02-15T09:03:29;57.13;;;26.55;;
41546;SDS011;27271;45.412;10.852;2023-02-15T09:06:51;63.47;;;28.08;;
41546;SDS011;27271;45.412;10.852;2023-02-15T09:10:14;70.88;;;28.30;;
41546;SDS011;27271;45.412;10.852;2023-02-15T09:13:36;57.95;;;26.38;;
41546;SDS011;27271;45.412;10.852;2023-02-15T09:17:00;55.20;;;27.30;;
41546;SDS011;27271;45.412;10.852;2023-02-15T09:20:22;63.80;;;28.35;;
41546;SDS011;27271;45.412;10.852;2023-02-15T09:23:46;56.60;;;26.55;;
41546;SDS011;27271;45.412;10.852;2023-02-15T09:27:19;60.70;;;27.25;;
41546;SDS011;27271;45.412;10.852;2023-02-15T09:30:41;50.35;;;25.40;;
41546;SDS011;27271;45.412;10.852;2023-02-15T09:34:04;51.72;;;25.98;;
41546;SDS011;27271;45.412;10.852;2023-02-15T09:37:26;60.03;;;28.42;;
41546;SDS011;27271;45.412;10.852;2023-02-15T09:40:51;59.15;;;28.42;;
41546;SDS011;27271;45.412;10.852;2023-02-15T09:48:29;62.80;;;30.23;;
41546;SDS011;27271;45.412;10.852;2023-02-15T09:52:19;58.13;;;28.33;;
41546;SDS011;27271;45.412;10.852;2023-02-15T09:59:44;64.97;;;31.05;;
41546;SDS011;27271;45.412;10.852;2023-02-15T10:25:51;45.50;;;21.50;;
41546;SDS011;27271;45.412;10.852;2023-02-15T10:29:39;46.33;;;21.08;;
41546;SDS011;27271;45.412;10.852;2023-02-15T10:37:02;26.05;;;13.35;;
41546;SDS011;27271;45.412;10.852;2023-02-15T10:41:06;28.60;;;12.38;;
41546;SDS011;27271;45.412;10.852;2023-02-15T10:56:05;14.80;;;7.68;;
41546;SDS011;27271;45.412;10.852;2023-02-15T11:04:09;16.25;;;7.00;;
41546;SDS011;27271;45.412;10.852;2023-02-15T11:08:00;13.65;;;5.53;;
41546;SDS011;27271;45.412;10.852;2023-02-15T11:11:38;9.68;;;5.18;;
41546;SDS011;27271;45.412;10.852;2023-02-15T11:15:39;7.85;;;3.60;;
41546;SDS011;27271;45.412;10.852;2023-02-15T11:19:23;11.82;;;4.80;;
41546;SDS011;27271;45.412;10.852;2023-02-15T11:22:51;17.77;;;7.15;;
41546;SDS011;27271;45.412;10.852;2023-02-15T11:26:54;17.08;;;7.43;;
41546;SDS011;27271;45.412;10.852;2023-02-15T11:30:43;13.95;;;7.13;;
41546;SDS011;27271;45.412;10.852;2023-02-15T11:34:20;17.85;;;9.38;;
41546;SDS011;27271;45.412;10.852;2023-02-15T11:37:57;24.27;;;9.52;;
41546;SDS011;27271;45.412;10.852;2023-02-15T11:41:31;22.95;;;10.10;;
41546;SDS011;27271;45.412;10.852;2023-02-15T11:48:43;27.83;;;11.25;;
41546;SDS011;27271;45.412;10.852;2023-02-15T11:52:06;23.85;;;11.23;;
41546;SDS011;27271;45.412;10.852;2023-02-15T11:55:54;20.83;;;8.77;;
41546;SDS011;27271;45.412;10.852;2023-02-15T11:59:32;17.70;;;7.43;;
41546;SDS011;27271;45.412;10.852;2023-02-15T12:02:58;16.60;;;7.05;;
41546;SDS011;27271;45.412;10.852;2023-02-15T12:10:34;12.00;;;6.03;;
41546;SDS011;27271;45.412;10.852;2023-02-15T12:14:10;14.85;;;5.80;;
41546;SDS011;27271;45.412;10.852;2023-02-15T12:21:40;12.02;;;5.90;;
41546;SDS011;27271;45.412;10.852;2023-02-15T12:29:12;18.40;;;6.80;;
41546;SDS011;27271;45.412;10.852;2023-02-15T12:32:51;18.75;;;6.85;;
41546;SDS011;27271;45.412;10.852;2023-02-15T12:36:20;15.45;;;7.30;;
41546;SDS011;27271;45.412;10.852;2023-02-15T12:39:53;20.20;;;9.23;;
41546;SDS011;27271;45.412;10.852;2023-02-15T12:43:26;19.92;;;8.23;;
41546;SDS011;27271;45.412;10.852;2023-02-15T12:47:18;23.75;;;9.38;;
41546;SDS011;27271;45.412;10.852;2023-02-15T12:51:22;17.83;;;7.45;;
41546;SDS011;27271;45.412;10.852;2023-02-15T12:54:54;25.15;;;7.97;;
41546;SDS011;27271;45.412;10.852;2023-02-15T12:58:34;14.30;;;7.25;;
41546;SDS011;27271;45.412;10.852;2023-02-15T13:06:04;16.98;;;7.95;;
41546;SDS011;27271;45.412;10.852;2023-02-15T13:21:26;23.38;;;9.02;;
41546;SDS011;27271;45.412;10.852;2023-02-15T13:24:57;19.95;;;8.88;;
41546;SDS011;27271;45.412;10.852;2023-02-15T13:28:56;22.92;;;9.30;;
41546;SDS011;27271;45.412;10.852;2023-02-15T13:32:40;24.63;;;10.27;;
41546;SDS011;27271;45.412;10.852;2023-02-15T13:36:23;21.77;;;10.25;;
41546;SDS011;27271;45.412;10.852;2023-02-15T13:52:25;30.98;;;13.15;;
41546;SDS011;27271;45.412;10.852;2023-02-15T14:18:04;71.93;;;27.02;;
41546;SDS011;27271;45.412;10.852;2023-02-15T14:22:00;74.72;;;27.27;;
41546;SDS011;27271;45.412;10.852;2023-02-15T14:25:39;71.78;;;29.92;;
41546;SDS011;27271;45.412;10.852;2023-02-15T14:29:23;67.13;;;29.95;;
41546;SDS011;27271;45.412;10.852;2023-02-15T14:33:56;72.00;;;28.95;;
41546;SDS011;27271;45.412;10.852;2023-02-15T14:37:46;75.57;;;29.98;;
41546;SDS011;27271;45.412;10.852;2023-02-15T14:42:36;74.55;;;29.85;;
41546;SDS011;27271;45.412;10.852;2023-02-15T14:49:39;76.32;;;28.63;;
41546;SDS011;27271;45.412;10.852;2023-02-15T15:00:40;79.20;;;30.33;;
41546;SDS011;27271;45.412;10.852;2023-02-15T15:07:57;76.85;;;30.75;;
41546;SDS011;27271;45.412;10.852;2023-02-15T15:15:04;70.78;;;28.70;;
41546;SDS011;27271;45.412;10.852;2023-02-15T15:18:48;80.40;;;31.15;;
41546;SDS011;27271;45.412;10.852;2023-02-15T15:22:17;80.80;;;31.23;;
41546;SDS011;27271;45.412;10.852;2023-02-15T15:29:16;77.97;;;29.58;;
41546;SDS011;27271;45.412;10.852;2023-02-15T15:52:00;76.45;;;30.00;;
41546;SDS011;27271;45.412;10.852;2023-02-15T16:02:11;83.28;;;32.58;;
41546;SDS011;27271;45.412;10.852;2023-02-15T16:05:39;84.05;;;33.53;;
41546;SDS011;27271;45.412;10.852;2023-02-15T16:09:12;99.93;;;41.03;;
41546;SDS011;27271;45.412;10.852;2023-02-15T16:12:34;86.32;;;33.35;;
41546;SDS011;27271;45.412;10.852;2023-02-15T16:15:58;79.35;;;31.55;;
41546;SDS011;27271;45.412;10.852;2023-02-15T16:19:22;83.50;;;33.00;;
41546;SDS011;27271;45.412;10.852;2023-02-15T16:22:54;93.25;;;33.15;;
41546;SDS011;27271;45.412;10.852;2023-02-15T16:33:45;98.05;;;36.10;;
41546;SDS011;27271;45.412;10.852;2023-02-15T16:37:15;91.15;;;35.20;;
41546;SDS011;27271;45.412;10.852;2023-02-15T16:40:53;95.65;;;33.90;;
41546;SDS011;27271;45.412;10.852;2023-02-15T16:44:19;85.00;;;34.65;;
41546;SDS011;27271;45.412;10.852;2023-02-15T16:47:46;95.82;;;34.72;;
41546;SDS011;27271;45.412;10.852;2023-02-15T16:51:10;89.75;;;33.92;;
41546;SDS011;27271;45.412;10.852;2023-02-15T16:54:42;88.10;;;35.85;;
41546;SDS011;27271;45.412;10.852;2023-02-15T16:58:05;99.65;;;36.88;;
41546;SDS011;27271;45.412;10.852;2023-02-15T17:01:30;98.20;;;35.05;;
41546;SDS011;27271;45.412;10.852;2023-02-15T17:08:41;100.90;;;36.95;;
41546;SDS011;27271;45.412;10.852;2023-02-15T17:12:08;97.38;;;36.28;;
41546;SDS011;27271;45.412;10.852;2023-02-15T17:15:34;97.03;;;35.38;;
41546;SDS011;27271;45.412;10.852;2023-02-15T17:18:59;92.30;;;35.20;;
41546;SDS011;27271;45.412;10.852;2023-02-15T17:22:24;95.05;;;35.60;;
41546;SDS011;27271;45.412;10.852;2023-02-15T17:25:52;83.05;;;33.45;;
41546;SDS011;27271;45.412;10.852;2023-02-15T17:29:22;90.10;;;34.00;;
41546;SDS011;27271;45.412;10.852;2023-02-15T17:33:18;100.85;;;34.65;;
41546;SDS011;27271;45.412;10.852;2023-02-15T17:36:56;101.97;;;36.78;;
41546;SDS011;27271;45.412;10.852;2023-02-15T17:40:22;117.38;;;37.63;;
41546;SDS011;27271;45.412;10.852;2023-02-15T17:43:50;90.80;;;34.60;;
41546;SDS011;27271;45.412;10.852;2023-02-15T17:47:13;92.43;;;35.15;;
41546;SDS011;27271;45.412;10.852;2023-02-15T17:50:40;82.40;;;33.47;;
41546;SDS011;27271;45.412;10.852;2023-02-15T17:54:03;102.93;;;35.08;;
41546;SDS011;27271;45.412;10.852;2023-02-15T17:57:46;100.10;;;35.70;;
41546;SDS011;27271;45.412;10.852;2023-02-15T18:01:14;106.28;;;37.72;;
41546;SDS011;27271;45.412;10.852;2023-02-15T18:04:58;113.03;;;42.17;;
41546;SDS011;27271;45.412;10.852;2023-02-15T18:08:39;113.75;;;39.13;;
41546;SDS011;27271;45.412;10.852;2023-02-15T18:15:42;111.60;;;39.17;;
41546;SDS011;27271;45.412;10.852;2023-02-15T18:19:05;101.90;;;38.00;;
41546;SDS011;27271;45.412;10.852;2023-02-15T18:22:32;103.97;;;39.08;;
41546;SDS011;27271;45.412;10.852;2023-02-15T18:25:54;117.80;;;39.88;;
41546;SDS011;27271;45.412;10.852;2023-02-15T18:29:16;103.38;;;39.53;;
41546;SDS011;27271;45.412;10.852;2023-02-15T18:32:38;119.38;;;39.63;;
41546;SDS011;27271;45.412;10.852;2023-02-15T18:36:02;105.55;;;40.40;;
41546;SDS011;27271;45.412;10.852;2023-02-15T18:43:20;100.97;;;35.63;;
41546;SDS011;27271;45.412;10.852;2023-02-15T18:46:42;100.70;;;35.75;;
41546;SDS011;27271;45.412;10.852;2023-02-15T18:50:05;103.82;;;38.78;;
41546;SDS011;27271;45.412;10.852;2023-02-15T18:53:27;107.28;;;39.53;;
41546;SDS011;27271;45.412;10.852;2023-02-15T18:56:52;111.90;;;39.95;;
41546;SDS011;27271;45.412;10.852;2023-02-15T19:00:23;105.75;;;40.40;;
41546;SDS011;27271;45.412;10.852;2023-02-15T19:03:50;114.57;;;40.28;;
41546;SDS011;27271;45.412;10.852;2023-02-15T19:07:16;91.18;;;36.42;;
41546;SDS011;27271;45.412;10.852;2023-02-15T19:10:43;94.35;;;35.97;;
41546;SDS011;27271;45.412;10.852;2023-02-15T19:14:08;100.00;;;35.90;;
41546;SDS011;27271;45.412;10.852;2023-02-15T19:17:43;102.93;;;35.67;;
41546;SDS011;27271;45.412;10.852;2023-02-15T19:21:05;101.60;;;36.47;;
41546;SDS011;27271;45.412;10.852;2023-02-15T19:24:35;105.35;;;36.85;;
41546;SDS011;27271;45.412;10.852;2023-02-15T19:27:59;110.68;;;37.03;;
41546;SDS011;27271;45.412;10.852;2023-02-15T19:31:24;101.97;;;36.17;;
41546;SDS011;27271;45.412;10.852;2023-02-15T19:34:46;105.88;;;37.38;;
41546;SDS011;27271;45.412;10.852;2023-02-15T19:38:10;107.18;;;38.25;;
41546;SDS011;27271;45.412;10.852;2023-02-15T19:41:40;91.57;;;36.35;;
41546;SDS011;27271;45.412;10.852;2023-02-15T19:45:08;95.55;;;35.83;;
41546;SDS011;27271;45.412;10.852;2023-02-15T19:48:37;80.32;;;31.63;;
41546;SDS011;27271;45.412;10.852;2023-02-15T19:51:59;86.63;;;32.90;;
41546;SDS011;27271;45.412;10.852;2023-02-15T19:58:49;82.38;;;31.80;;
41546;SDS011;27271;45.412;10.852;2023-02-15T20:02:18;92.88;;;33.63;;
41546;SDS011;27271;45.412;10.852;2023-02-15T20:05:40;83.90;;;31.88;;
41546;SDS011;27271;45.412;10.852;2023-02-15T20:09:03;83.65;;;31.05;;
41546;SDS011;27271;45.412;10.852;2023-02-15T20:12:25;82.20;;;30.17;;
41546;SDS011;27271;45.412;10.852;2023-02-15T20:15:50;77.50;;;31.02;;
41546;SDS011;27271;45.412;10.852;2023-02-15T20:19:13;80.95;;;29.25;;
41546;SDS011;27271;45.412;10.852;2023-02-15T20:22:36;84.68;;;30.00;;
41546;SDS011;27271;45.412;10.852;2023-02-15T20:25:59;79.30;;;28.42;;
41546;SDS011;27271;45.412;10.852;2023-02-15T20:29:43;78.60;;;29.33;;
41546;SDS011;27271;45.412;10.852;2023-02-15T20:33:05;77.70;;;28.73;;
41546;SDS011;27271;45.412;10.852;2023-02-15T20:36:28;85.00;;;30.70;;
41546;SDS011;27271;45.412;10.852;2023-02-15T20:39:50;86.47;;;31.63;;
41546;SDS011;27271;45.412;10.852;2023-02-15T20:43:13;79.95;;;30.48;;
41546;SDS011;27271;45.412;10.852;2023-02-15T20:46:35;70.90;;;27.65;;
41546;SDS011;27271;45.412;10.852;2023-02-15T20:49:57;70.80;;;28.70;;
41546;SDS011;27271;45.412;10.852;2023-02-15T20:53:19;81.50;;;30.02;;
41546;SDS011;27271;45.412;10.852;2023-02-15T20:56:42;79.75;;;29.77;;
41546;SDS011;27271;45.412;10.852;2023-02-15T21:00:04;88.45;;;31.58;;
41546;SDS011;27271;45.412;10.852;2023-02-15T21:03:29;83.78;;;32.45;;
41546;SDS011;27271;45.412;10.852;2023-02-15T21:06:52;78.15;;;31.65;;
41546;SDS011;27271;45.412;10.852;2023-02-15T21:10:18;82.22;;;31.88;;
41546;SDS011;27271;45.412;10.852;2023-02-15T21:13:43;80.25;;;30.00;;
41546;SDS011;27271;45.412;10.852;2023-02-15T21:17:08;84.25;;;31.35;;
41546;SDS011;27271;45.412;10.852;2023-02-15T21:20:32;79.95;;;31.65;;
41546;SDS011;27271;45.412;10.852;2023-02-15T21:23:56;78.72;;;30.65;;
41546;SDS011;27271;45.412;10.852;2023-02-15T21:27:18;81.40;;;30.70;;
41546;SDS011;27271;45.412;10.852;2023-02-15T21:30:40;90.32;;;33.13;;
41546;SDS011;27271;45.412;10.852;2023-02-15T21:34:02;75.15;;;29.85;;
41546;SDS011;27271;45.412;10.852;2023-02-15T21:37:26;86.22;;;32.67;;
41546;SDS011;27271;45.412;10.852;2023-02-15T21:40:52;92.78;;;31.30;;
41546;SDS011;27271;45.412;10.852;2023-02-15T21:47:58;90.07;;;32.72;;
41546;SDS011;27271;45.412;10.852;2023-02-15T21:51:24;77.32;;;31.00;;
41546;SDS011;27271;45.412;10.852;2023-02-15T21:55:11;82.22;;;32.50;;
41546;SDS011;27271;45.412;10.852;2023-02-15T21:58:35;86.55;;;31.60;;
41546;SDS011;27271;45.412;10.852;2023-02-15T22:01:57;88.30;;;33.15;;
41546;SDS011;27271;45.412;10.852;2023-02-15T22:05:21;83.82;;;30.10;;
41546;SDS011;27271;45.412;10.852;2023-02-15T22:08:48;82.18;;;31.70;;
41546;SDS011;27271;45.412;10.852;2023-02-15T22:12:13;92.75;;;31.98;;
41546;SDS011;27271;45.412;10.852;2023-02-15T22:15:37;92.70;;;30.95;;
41546;SDS011;27271;45.412;10.852;2023-02-15T22:19:00;89.10;;;32.28;;
41546;SDS011;27271;45.412;10.852;2023-02-15T22:22:22;81.18;;;31.55;;
41546;SDS011;27271;45.412;10.852;2023-02-15T22:25:46;96.15;;;33.50;;
41546;SDS011;27271;45.412;10.852;2023-02-15T22:29:16;93.13;;;33.15;;
41546;SDS011;27271;45.412;10.852;2023-02-15T22:32:38;82.38;;;29.10;;
41546;SDS011;27271;45.412;10.852;2023-02-15T22:36:01;90.05;;;33.30;;
41546;SDS011;27271;45.412;10.852;2023-02-15T22:39:23;84.78;;;30.60;;
41546;SDS011;27271;45.412;10.852;2023-02-15T22:42:47;88.75;;;32.17;;
41546;SDS011;27271;45.412;10.852;2023-02-15T22:46:21;83.82;;;30.92;;
41546;SDS011;27271;45.412;10.852;2023-02-15T22:49:45;83.00;;;30.55;;
41546;SDS011;27271;45.412;10.852;2023-02-15T22:53:07;84.30;;;31.50;;
41546;SDS011;27271;45.412;10.852;2023-02-15T22:56:32;91.15;;;32.05;;
41546;SDS011;27271;45.412;10.852;2023-02-15T23:00:14;92.93;;;32.85;;
41546;SDS011;27271;45.412;10.852;2023-02-15T23:03:41;79.68;;;32.25;;
41546;SDS011;27271;45.412;10.852;2023-02-15T23:07:04;105.88;;;37.85;;
41546;SDS011;27271;45.412;10.852;2023-02-15T23:10:32;107.35;;;38.47;;
41546;SDS011;27271;45.412;10.852;2023-02-15T23:13:54;94.32;;;37.25;;
41546;SDS011;27271;45.412;10.852;2023-02-15T23:17:16;105.93;;;36.60;;
41546;SDS011;27271;45.412;10.852;2023-02-15T23:20:38;98.85;;;37.20;;
41546;SDS011;27271;45.412;10.852;2023-02-15T23:24:34;106.20;;;38.17;;
41546;SDS011;27271;45.412;10.852;2023-02-15T23:27:50;96.60;;;35.53;;
41546;SDS011;27271;45.412;10.852;2023-02-15T23:31:22;104.75;;;36.33;;
41546;SDS011;27271;45.412;10.852;2023-02-15T23:34:45;106.35;;;36.30;;
41546;SDS011;27271;45.412;10.852;2023-02-15T23:38:26;97.88;;;35.03;;
41546;SDS011;27271;45.412;10.852;2023-02-15T23:41:50;97.60;;;36.03;;
41546;SDS011;27271;45.412;10.852;2023-02-15T23:45:21;114.95;;;36.97;;